aviador You're here:

KSBP Decoded Metar

SAN LUIS OBISPO in CA, USA
Report Time2017-05-23 19:56:00
UTC Time2017-05-23 20:40:27
Flight Rules vfr VFR
Wind310° at 10 kt
W.Decomp.*RWY 29: 10.0 kt HW 0.9 kt RCW
RWY 25: 7.1 kt HW 7.1 kt RCW
W.Rank310° ranks 1
Current wind is below 310° avg. (10.4)
Visibility9999 m
Phenomena:N/A
Clouds:N/A
Expected CloudBase > 3,600 ft AGL from Temp-Dew spread
CeilingNone
Temp21°C (ISA +6)
Dew Point12°C (57% RH)
AAT18.1°C
QNH1016 hPa
Density Alt1,027 ft
Elevation194 ft
Report Wrong Elevation
Raw Report
KSBP 231956Z 31010KT 10SM CLR 21/12 A3001 RMK AO2 SLP161
T02060122=

Extra information for KSBP:More info

Metar Taf Metar & Taf Last 4 Metars F.Rules Stats Wind Profile Meteogram Temp Stats Airport Information Weather charts Add Link Nearby VenuesMetar ALERT Operation Metar Decoded Social comments

AIRNAV info for KSBP